Time;durP1;ratioP1;P1;durP2;ratioP2;P2;SDS_P1;SDS_P2;PMS_P1;PMS_P2;Temp;Humidity;BMP_temperature;BMP_pressure;BME280_temperature;BME280_humidity;BME280_pressure;Samples;Min_cycle;Max_cycle;Signal;HPM_P1;HPM_P2
2023/05/08 00:00:20;;;;;;;140.55;58.10;;;;;;;17.98;49.29;102288.19;5052658;28;20032;-71
2023/05/08 00:02:46;;;;;;;133.60;57.13;;;;;;;17.96;49.53;102288.25;5062153;28;20389;-70
2023/05/08 00:05:11;;;;;;;138.18;57.72;;;;;;;17.94;49.80;102275.97;5045804;28;20453;-70
2023/05/08 00:07:37;;;;;;;142.00;57.88;;;;;;;17.94;49.38;102279.47;5050410;28;20079;-71
2023/05/08 00:10:04;;;;;;;146.18;58.25;;;;;;;17.92;49.76;102281.28;5051180;28;20090;-71
2023/05/08 00:12:29;;;;;;;143.32;57.25;;;;;;;17.90;49.56;102276.00;5031078;28;20037;-71
2023/05/08 00:14:55;;;;;;;139.30;56.72;;;;;;;17.91;50.06;102284.78;5056795;28;20025;-71
2023/05/08 00:17:20;;;;;;;134.63;56.15;;;;;;;17.89;50.06;102287.47;5058250;28;20036;-71
2023/05/08 00:19:46;;;;;;;146.77;58.03;;;;;;;17.87;50.26;102278.72;5061216;28;20039;-71
2023/05/08 00:22:11;;;;;;;139.10;57.22;;;;;;;17.88;50.59;102284.88;5055236;28;20020;-71
2023/05/08 00:24:36;;;;;;;139.90;58.67;;;;;;;17.86;50.15;102281.38;5065494;28;20016;-71
2023/05/08 00:27:02;;;;;;;141.88;57.08;;;;;;;17.84;50.10;102278.75;5037202;28;20033;-71
2023/05/08 00:29:27;;;;;;;154.07;58.65;;;;;;;17.85;50.40;102274.38;5029750;28;20022;-71
2023/05/08 00:31:52;;;;;;;140.77;57.15;;;;;;;17.84;49.70;102280.53;5062934;28;20020;-71
2023/05/08 00:34:18;;;;;;;152.50;58.50;;;;;;;17.82;50.63;102269.13;5063984;28;20021;-70
2023/05/08 00:36:43;;;;;;;138.98;56.67;;;;;;;17.83;50.47;102281.44;5067421;28;20158;-71
2023/05/08 00:39:08;;;;;;;135.73;56.08;;;;;;;17.81;50.22;102283.25;5059406;28;20021;-71
2023/05/08 00:41:34;;;;;;;137.77;56.40;;;;;;;17.80;50.36;102276.22;5054189;28;20546;-71
2023/05/08 00:43:59;;;;;;;166.38;61.70;;;;;;;17.79;50.17;102269.19;5053255;28;20029;-71
2023/05/08 00:46:25;;;;;;;138.60;56.75;;;;;;;17.78;50.62;102272.72;5038131;28;20033;-70
2023/05/08 00:48:50;;;;;;;142.63;55.97;;;;;;;17.77;51.00;102278.94;5051388;28;20032;-71
2023/05/08 00:51:16;;;;;;;137.40;56.22;;;;;;;17.78;51.85;102280.66;5050674;28;20043;-70
2023/05/08 00:53:43;;;;;;;164.05;60.40;;;;;;;17.74;50.64;102286.03;5046253;28;20024;-70
2023/05/08 00:56:13;;;;;;;140.43;56.65;;;;;;;17.73;51.29;102284.28;5041017;28;20402;-70
2023/05/08 00:58:40;;;;;;;147.20;57.80;;;;;;;17.70;51.07;102275.56;5048628;28;20095;-71
2023/05/08 01:01:05;;;;;;;148.90;58.63;;;;;;;17.70;51.18;102280.84;5049519;28;20478;-71
2023/05/08 01:03:32;;;;;;;141.13;56.97;;;;;;;17.67;51.24;102279.13;5048143;28;20053;-70
2023/05/08 01:05:58;;;;;;;146.45;57.88;;;;;;;17.67;51.16;102275.59;5045686;28;20029;-71
2023/05/08 01:08:24;;;;;;;137.20;56.13;;;;;;;17.66;50.83;102280.03;5048754;28;20079;-71
2023/05/08 01:11:14;;;;;;;156.40;59.15;;;;;;;17.66;51.60;102274.75;5049946;28;20029;-72
2023/05/08 01:14:12;;;;;;;137.98;56.28;;;;;;;17.67;51.75;102288.81;5047403;28;20021;-71
2023/05/08 01:16:57;;;;;;;138.07;57.33;;;;;;;17.67;51.24;102287.06;5037158;28;20596;-70
2023/05/08 01:19:35;;;;;;;;;;;;;;;17.65;50.42;102288.84;5049764;28;20051;-71
2023/05/08 01:22:22;;;;;;;137.23;56.63;;;;;;;17.65;50.87;102294.13;5050322;28;19992;-70
2023/05/08 01:25:20;;;;;;;150.55;57.85;;;;;;;17.62;50.90;102294.22;5039282;28;20040;-69
2023/05/08 01:28:11;;;;;;;138.45;55.78;;;;;;;17.61;51.55;102288.97;5056361;28;20519;-70
2023/05/08 01:31:17;;;;;;;137.98;56.33;;;;;;;17.60;51.23;102293.38;5046893;28;20389;-70
2023/05/08 01:33:50;;;;;;;;;;;;;;;17.60;51.61;102284.56;5046462;28;20029;-70
2023/05/08 01:36:33;;;;;;;141.38;55.95;;;;;;;17.57;51.91;102283.75;5047883;28;19959;-70
2023/05/08 01:39:20;;;;;;;137.52;55.53;;;;;;;17.57;51.41;102289.03;5044692;28;20385;-70
2023/05/08 01:41:52;;;;;;;136.02;56.17;;;;;;;17.57;52.02;102288.13;5051707;28;20025;-71
2023/05/08 01:44:20;;;;;;;149.00;57.30;;;;;;;17.55;51.72;102282.88;5046835;28;20446;-70
2023/05/08 01:46:49;;;;;;;138.77;56.67;;;;;;;17.55;51.52;102282.88;5048707;28;20037;-71
2023/05/08 01:49:26;;;;;;;136.85;56.22;;;;;;;17.56;52.06;102291.69;5031909;28;20025;-71
2023/05/08 01:52:31;;;;;;;139.48;56.70;;;;;;;17.55;51.37;102287.31;5049918;28;20027;-71
2023/05/08 01:55:09;;;;;;;140.73;56.80;;;;;;;17.54;51.67;102290.84;5030505;28;20106;-70
2023/05/08 01:57:37;;;;;;;154.55;58.60;;;;;;;17.53;52.01;102289.09;5029229;28;20028;-71
2023/05/08 02:00:04;;;;;;;136.13;57.63;;;;;;;17.52;51.91;102282.06;5050609;28;20097;-70
2023/05/08 02:02:30;;;;;;;188.02;64.63;;;;;;;17.51;52.43;102293.56;5048244;28;20036;-71
2023/05/08 02:04:56;;;;;;;137.20;55.42;;;;;;;17.51;52.24;102301.50;5046707;28;20031;-70
2023/05/08 02:07:22;;;;;;;142.45;57.53;;;;;;;17.51;53.12;102296.22;5064890;28;20028;-71
2023/05/08 02:09:47;;;;;;;141.98;56.90;;;;;;;17.49;52.34;102290.97;5052308;28;20055;-71
2023/05/08 02:12:15;;;;;;;135.52;55.85;;;;;;;17.49;52.63;102301.53;5046734;28;20029;-70
2023/05/08 02:14:41;;;;;;;136.75;55.95;;;;;;;17.50;52.48;102299.75;5041333;28;20523;-71
2023/05/08 02:17:08;;;;;;;149.55;58.67;;;;;;;17.48;52.66;102285.69;5055068;28;20029;-70
2023/05/08 02:19:35;;;;;;;137.63;55.00;;;;;;;17.48;53.03;102302.41;5047991;28;20493;-71
2023/05/08 02:22:01;;;;;;;138.68;56.53;;;;;;;17.47;52.74;102294.53;5045278;28;20467;-71
2023/05/08 02:24:28;;;;;;;139.57;55.55;;;;;;;17.46;53.11;102296.28;5031184;28;20017;-71
2023/05/08 02:26:54;;;;;;;132.60;54.35;;;;;;;17.46;53.05;102291.00;5057140;28;20063;-71
2023/05/08 02:29:21;;;;;;;139.50;56.42;;;;;;;17.45;53.15;102286.63;5058022;28;20025;-71
2023/05/08 02:31:47;;;;;;;139.75;55.92;;;;;;;17.45;53.06;102291.03;5052891;28;20071;-71
2023/05/08 02:34:13;;;;;;;139.02;55.35;;;;;;;17.44;53.48;102292.81;5043957;28;20094;-71
2023/05/08 02:36:38;;;;;;;155.60;58.40;;;;;;;17.44;53.07;102295.44;5056607;28;20020;-70
2023/05/08 02:39:04;;;;;;;140.93;56.00;;;;;;;17.43;53.09;102285.78;5049641;28;20025;-70
2023/05/08 02:41:31;;;;;;;135.68;55.50;;;;;;;17.44;52.44;102284.00;5057854;28;20063;-71
2023/05/08 02:43:56;;;;;;;153.35;58.17;;;;;;;17.42;53.00;102291.09;5037827;28;20021;-71
2023/05/08 02:46:28;;;;;;;140.07;56.38;;;;;;;17.42;53.47;102291.09;5051841;28;20040;-71
2023/05/08 02:48:57;;;;;;;140.25;56.45;;;;;;;17.40;52.94;102278.78;5037279;28;20025;-71
2023/05/08 02:51:34;;;;;;;140.40;56.60;;;;;;;17.40;53.43;102273.50;5041693;28;20135;-71
2023/05/08 02:54:28;;;;;;;150.65;57.92;;;;;;;17.39;53.10;102279.69;5042747;28;20426;-71
2023/05/08 02:57:26;;;;;;;147.85;56.38;;;;;;;17.37;53.02;102284.13;5050986;28;20493;-71
2023/05/08 03:00:11;;;;;;;137.63;55.35;;;;;;;17.37;53.31;102276.22;5059060;28;20037;-71
2023/05/08 03:02:40;;;;;;;134.02;55.10;;;;;;;17.35;52.59;102275.34;5049147;28;20017;-71
2023/05/08 03:05:18;;;;;;;148.00;58.05;;;;;;;17.36;53.52;102278.88;5034418;28;20032;-71
2023/05/08 03:07:46;;;;;;;137.13;55.28;;;;;;;17.36;54.51;102278.88;5049195;28;20406;-71
2023/05/08 03:10:14;;;;;;;140.27;56.20;;;;;;;17.34;53.57;102278.91;5057974;28;20021;-72
2023/05/08 03:12:43;;;;;;;143.35;56.85;;;;;;;17.34;53.49;102278.03;5034323;28;20112;-71
2023/05/08 03:15:11;;;;;;;145.90;56.92;;;;;;;17.33;53.38;102277.16;5050919;28;20025;-71
2023/05/08 03:17:37;;;;;;;132.15;54.67;;;;;;;17.32;53.60;102272.78;5049394;28;20035;-72
2023/05/08 03:20:04;;;;;;;137.60;55.42;;;;;;;17.33;53.70;102269.25;5058162;28;20074;-71
2023/05/08 03:22:31;;;;;;;135.25;55.85;;;;;;;17.33;53.43;102271.00;5048744;28;20055;-71
2023/05/08 03:24:58;;;;;;;141.52;56.60;;;;;;;17.31;53.25;102265.75;5048597;28;20039;-71
2023/05/08 03:27:25;;;;;;;138.10;56.60;;;;;;;17.30;53.28;102282.53;5046811;28;20040;-71
2023/05/08 03:29:51;;;;;;;139.57;56.08;;;;;;;17.30;53.35;102273.72;5058224;28;20055;-72
2023/05/08 03:32:17;;;;;;;133.60;55.83;;;;;;;17.30;53.20;102274.59;5043680;28;20024;-72
2023/05/08 03:34:42;;;;;;;141.40;57.20;;;;;;;17.30;53.30;102281.63;5048991;28;20032;-71
2023/05/08 03:37:08;;;;;;;134.88;56.25;;;;;;;17.30;53.12;102274.59;5053417;28;20021;-71
2023/05/08 03:39:33;;;;;;;140.15;56.67;;;;;;;17.29;52.75;102275.50;5033255;28;20112;-72
2023/05/08 03:41:58;;;;;;;142.18;56.92;;;;;;;17.29;53.42;102270.22;5059954;28;20050;-72
2023/05/08 03:44:25;;;;;;;141.85;56.22;;;;;;;17.29;53.18;102280.78;5053444;28;20218;-72
2023/05/08 03:46:52;;;;;;;148.90;56.83;;;;;;;17.29;53.11;102278.13;5033945;28;20593;-73
2023/05/08 03:49:17;;;;;;;135.98;57.00;;;;;;;17.28;53.06;102273.75;5055661;28;20025;-72
2023/05/08 03:51:43;;;;;;;128.35;55.65;;;;;;;17.28;52.92;102276.38;5057104;28;20102;-73
2023/05/08 03:54:08;;;;;;;167.02;65.82;;;;;;;17.27;52.99;102274.63;5050361;28;20055;-72
2023/05/08 03:56:34;;;;;;;139.50;58.33;;;;;;;17.28;53.39;102272.88;5049923;28;20075;-71
2023/05/08 03:59:14;;;;;;;138.57;57.53;;;;;;;17.29;53.24;102277.25;5057616;28;20025;-72
2023/05/08 04:02:24;;;;;;;142.57;65.40;;;;;;;17.29;52.68;102285.16;5061656;28;20474;-73
2023/05/08 04:04:56;;;;;;;140.18;58.53;;;;;;;17.28;52.56;102279.03;4966167;28;20525;-73
2023/05/08 04:07:32;;;;;;;137.48;57.72;;;;;;;17.29;52.66;102275.50;5044588;28;20433;-72
2023/05/08 04:10:00;;;;;;;153.82;58.67;;;;;;;17.30;52.56;102271.06;5051605;28;20025;-71
2023/05/08 04:12:45;;;;;;;152.10;58.72;;;;;;;17.30;52.79;102271.06;5050504;28;20111;-72
2023/05/08 04:15:26;;;;;;;148.30;60.10;;;;;;;17.29;52.58;102264.94;5048536;28;20094;-72
2023/05/08 04:17:59;;;;;;;158.63;58.75;;;;;;;17.31;52.54;102271.03;5051329;28;20070;-73
2023/05/08 04:20:26;;;;;;;144.35;56.55;;;;;;;17.31;52.56;102272.81;5040171;28;20044;-72
2023/05/08 04:22:53;;;;;;;139.98;57.17;;;;;;;17.32;52.07;102275.41;5059954;28;20156;-73
2023/05/08 04:25:19;;;;;;;158.93;58.90;;;;;;;17.32;52.44;102275.41;5056336;28;20482;-72
2023/05/08 04:27:45;;;;;;;145.00;57.45;;;;;;;17.31;53.03;102268.41;5033564;28;20039;-72
2023/05/08 04:30:10;;;;;;;171.85;61.60;;;;;;;17.32;52.57;102267.50;5031326;28;20020;-72
2023/05/08 04:32:36;;;;;;;138.95;56.30;;;;;;;17.34;52.94;102263.06;5053140;28;20029;-73
2023/05/08 04:35:03;;;;;;;140.98;56.22;;;;;;;17.36;52.73;102265.69;5048594;28;20492;-71
2023/05/08 04:37:30;;;;;;;140.70;56.30;;;;;;;17.37;53.24;102265.66;5052356;28;20016;-70
2023/05/08 04:39:56;;;;;;;142.00;56.83;;;;;;;17.37;53.31;102268.28;5039243;28;20025;-71
2023/05/08 04:42:23;;;;;;;141.48;55.60;;;;;;;17.39;53.30;102266.47;5039549;28;20083;-72
2023/05/08 04:44:48;;;;;;;141.95;55.97;;;;;;;17.42;53.31;102267.31;5046292;28;20044;-72
2023/05/08 04:47:13;;;;;;;156.90;59.75;;;;;;;17.43;53.59;102269.94;5047949;28;20068;-71
2023/05/08 04:49:39;;;;;;;162.43;59.78;;;;;;;17.45;53.36;102267.25;5028410;28;20029;-72
2023/05/08 04:52:05;;;;;;;159.52;58.80;;;;;;;17.45;53.13;102267.25;5043855;28;20131;-71
2023/05/08 04:54:31;;;;;;;145.68;57.30;;;;;;;17.45;52.42;102261.97;5049958;28;20028;-71
2023/05/08 04:56:56;;;;;;;138.63;55.35;;;;;;;17.44;52.42;102271.69;5058176;28;20021;-71
2023/05/08 04:59:23;;;;;;;138.52;55.78;;;;;;;17.47;52.70;102268.09;5071736;28;20370;-71
2023/05/08 05:01:49;;;;;;;140.35;56.00;;;;;;;17.47;52.91;102276.03;5045622;28;20050;-70
2023/05/08 05:04:14;;;;;;;165.60;60.30;;;;;;;17.50;52.70;102278.59;5053814;28;20020;-71
2023/05/08 05:06:39;;;;;;;139.55;56.28;;;;;;;17.50;52.43;102275.97;5055446;28;20508;-71
2023/05/08 05:09:05;;;;;;;137.13;56.25;;;;;;;17.50;52.56;102279.47;5075727;28;20020;-71
2023/05/08 05:11:30;;;;;;;134.25;55.47;;;;;;;17.52;52.94;102284.72;5074703;28;20031;-71
2023/05/08 05:13:55;;;;;;;136.15;55.38;;;;;;;17.53;53.38;102281.19;5064829;28;20029;-73
2023/05/08 05:16:21;;;;;;;142.15;57.15;;;;;;;17.56;54.25;102281.09;5039189;28;20558;-72
2023/05/08 05:18:46;;;;;;;138.20;55.50;;;;;;;17.55;53.50;102277.59;5056464;28;20088;-71
2023/05/08 05:21:12;;;;;;;132.30;54.85;;;;;;;17.57;53.19;102282.84;5037396;28;20036;-73
2023/05/08 05:23:37;;;;;;;134.50;54.75;;;;;;;17.59;52.72;102283.72;5032748;28;20040;-73
2023/05/08 05:26:03;;;;;;;140.23;55.88;;;;;;;17.61;53.12;102286.31;5032781;28;20433;-72
2023/05/08 05:28:28;;;;;;;139.18;56.63;;;;;;;17.62;52.08;102288.91;5042983;28;20025;-69
2023/05/08 05:30:53;;;;;;;154.45;58.33;;;;;;;17.62;52.33;102288.91;5050078;28;20089;-70
2023/05/08 05:33:19;;;;;;;149.15;57.83;;;;;;;17.64;52.31;102294.16;5026792;28;20112;-71
2023/05/08 05:35:44;;;;;;;140.95;56.58;;;;;;;17.63;52.28;102295.06;5045752;28;20056;-70
2023/05/08 05:38:09;;;;;;;141.15;56.72;;;;;;;17.63;51.91;102295.97;5062503;28;20477;-70
2023/05/08 05:40:35;;;;;;;133.82;55.72;;;;;;;17.64;51.71;102296.81;5053017;28;20029;-70
2023/05/08 05:43:00;;;;;;;139.02;55.40;;;;;;;17.63;51.66;102295.06;5036696;28;20059;-71
2023/05/08 05:45:26;;;;;;;237.85;73.65;;;;;;;17.64;52.11;102300.34;5066134;22;20025;-72
2023/05/08 05:47:52;;;;;;;139.02;62.00;;;;;;;17.64;50.64;102297.72;5035363;28;20394;-74
2023/05/08 05:50:20;;;;;;;137.38;58.10;;;;;;;17.64;51.28;102300.34;5020381;28;20029;-73
2023/05/08 05:52:45;;;;;;;135.48;57.13;;;;;;;17.62;50.67;102286.28;5020590;28;20084;-74
2023/05/08 05:55:14;;;;;;;136.10;58.22;;;;;;;17.63;50.97;102290.66;5033847;28;20045;-73
2023/05/08 05:57:39;;;;;;;133.18;57.88;;;;;;;17.65;51.35;102294.13;5006311;28;20471;-73
2023/05/08 06:00:05;;;;;;;145.98;59.53;;;;;;;17.66;50.40;102298.53;5030338;28;20033;-73
2023/05/08 06:02:34;;;;;;;138.48;57.33;;;;;;;17.68;50.75;102299.38;5015857;28;20030;-73
2023/05/08 06:04:59;;;;;;;141.80;57.95;;;;;;;17.74;49.64;102293.09;5012258;28;20076;-73
2023/05/08 06:07:25;;;;;;;137.90;57.78;;;;;;;17.95;48.59;102291.78;5025402;28;20426;-73
2023/05/08 06:09:52;;;;;;;149.48;59.25;;;;;;;18.56;47.70;102292.13;5034487;28;20025;-73
2023/05/08 06:12:17;;;;;;;144.20;58.10;;;;;;;19.25;46.11;102293.94;5009209;28;20033;-73
2023/05/08 06:14:43;;;;;;;139.85;57.45;;;;;;;19.87;44.84;102305.47;5017157;28;20033;-73
2023/05/08 06:17:08;;;;;;;150.48;58.83;;;;;;;20.51;43.25;102299.09;5019338;28;20109;-73
2023/05/08 06:19:34;;;;;;;136.43;57.53;;;;;;;21.08;42.45;102298.06;4997693;28;20234;-72
2023/05/08 06:21:59;;;;;;;134.60;58.70;;;;;;;21.23;41.77;102298.44;5000509;28;20061;-76
2023/05/08 06:24:25;;;;;;;166.93;66.70;;;;;;;21.18;40.60;102293.28;4990988;28;20198;-71
2023/05/08 06:26:50;;;;;;;152.80;72.78;;;;;;;20.93;39.77;102303.91;4999933;28;20471;-71
2023/05/08 06:29:16;;;;;;;176.90;69.13;;;;;;;20.62;39.05;102304.91;5014878;28;20030;-71
2023/05/08 06:31:41;;;;;;;176.57;66.60;;;;;;;20.37;39.84;102308.34;5015362;28;20056;-71
2023/05/08 06:34:06;;;;;;;160.48;64.85;;;;;;;20.04;39.85;102311.16;5016493;28;20334;-71
2023/05/08 06:36:32;;;;;;;143.68;60.55;;;;;;;20.16;39.32;102303.72;5037073;28;20022;-72
2023/05/08 06:38:57;;;;;;;147.45;62.78;;;;;;;20.23;38.48;102305.25;5024388;28;20016;-71
2023/05/08 06:41:23;;;;;;;147.40;60.88;;;;;;;20.34;38.44;102300.50;5040124;28;20032;-72
2023/05/08 06:43:48;;;;;;;156.70;61.35;;;;;;;20.52;38.12;102298.13;5037939;28;20107;-71
2023/05/08 06:46:13;;;;;;;152.85;61.22;;;;;;;20.53;37.62;102297.22;5002314;28;20016;-71
2023/05/08 06:48:39;;;;;;;150.25;61.30;;;;;;;20.73;37.50;102288.66;5019144;28;20022;-71
2023/05/08 06:51:04;;;;;;;140.48;61.50;;;;;;;20.81;36.61;102288.41;5016600;28;20029;-70
2023/05/08 06:53:29;;;;;;;138.82;61.83;;;;;;;21.07;36.26;102291.00;5018336;28;20423;-71
2023/05/08 06:55:56;;;;;;;155.88;64.57;;;;;;;21.29;35.39;102295.53;5036470;28;20037;-71
2023/05/08 06:58:22;;;;;;;141.70;63.83;;;;;;;21.07;35.76;102293.66;4996777;28;20036;-71
2023/05/08 07:00:47;;;;;;;176.00;68.25;;;;;;;20.89;35.96;102294.31;5001284;28;20030;-71
2023/05/08 07:03:12;;;;;;;153.05;65.63;;;;;;;20.75;36.03;102308.03;5017282;28;20026;-71
2023/05/08 07:05:37;;;;;;;146.68;63.28;;;;;;;20.57;36.39;102298.88;5015164;28;20033;-71
2023/05/08 07:08:03;;;;;;;151.55;64.65;;;;;;;20.46;36.60;102296.56;5032527;28;20038;-71
2023/05/08 07:10:28;;;;;;;156.82;65.22;;;;;;;20.41;36.38;102293.19;5032491;28;20439;-72
2023/05/08 07:12:54;;;;;;;160.73;64.28;;;;;;;20.47;37.61;102287.69;5026167;28;20061;-75
2023/05/08 07:15:20;;;;;;;142.57;61.65;;;;;;;20.54;37.86;102288.34;5019421;28;20535;-74
2023/05/08 07:17:46;;;;;;;150.05;62.40;;;;;;;20.63;37.66;102285.41;5031174;28;20670;-74
2023/05/08 07:20:11;;;;;;;157.93;64.97;;;;;;;20.77;37.83;102291.13;5014436;28;20075;-75
2023/05/08 07:22:37;;;;;;;134.68;60.38;;;;;;;21.00;37.67;102283.31;5013210;28;20029;-75
2023/05/08 07:25:02;;;;;;;140.73;61.85;;;;;;;21.23;37.63;102285.16;5011704;28;20041;-75
2023/05/08 07:27:27;;;;;;;175.55;67.00;;;;;;;21.35;37.67;102279.41;4995154;28;20510;-75
2023/05/08 07:29:53;;;;;;;166.65;65.72;;;;;;;21.50;37.73;102283.28;5009461;28;20029;-75
2023/05/08 07:32:18;;;;;;;157.18;65.13;;;;;;;21.60;38.20;102273.19;5012567;28;20029;-73
2023/05/08 07:34:43;;;;;;;152.73;62.40;;;;;;;21.72;37.92;102280.69;5032472;28;20056;-74
2023/05/08 07:37:09;;;;;;;142.02;63.33;;;;;;;21.68;38.12;102281.75;5012168;28;20056;-72
2023/05/08 07:39:34;;;;;;;147.13;62.83;;;;;;;21.64;38.04;102279.25;5032550;28;20100;-72
2023/05/08 07:42:00;;;;;;;153.88;63.70;;;;;;;21.70;38.05;102287.84;5027992;28;20022;-72
2023/05/08 07:44:25;;;;;;;169.68;65.35;;;;;;;21.78;37.83;102280.44;5007054;28;20101;-72
2023/05/08 07:46:51;;;;;;;183.60;68.35;;;;;;;21.85;38.07;102269.59;5009283;28;20038;-71
2023/05/08 07:49:16;;;;;;;156.05;63.15;;;;;;;21.94;37.47;102270.09;5006852;28;20029;-72
2023/05/08 07:51:42;;;;;;;145.75;62.20;;;;;;;22.05;37.39;102266.16;5013791;28;20076;-71
2023/05/08 07:54:07;;;;;;;159.15;63.58;;;;;;;22.14;37.22;102271.06;5028076;28;20030;-71
2023/05/08 07:56:32;;;;;;;138.43;61.25;;;;;;;22.22;37.50;102262.78;5032686;28;20117;-71
2023/05/08 07:58:57;;;;;;;151.45;64.10;;;;;;;22.21;37.35;102261.94;5024984;28;20120;-71
2023/05/08 08:01:23;;;;;;;144.05;63.22;;;;;;;22.17;36.99;102249.69;5012122;28;20025;-71
2023/05/08 08:03:48;;;;;;;145.75;62.50;;;;;;;22.14;37.04;102257.78;5029911;28;20033;-71
2023/05/08 08:06:13;;;;;;;139.70;62.83;;;;;;;22.09;37.45;102263.28;5016016;28;20064;-71
2023/05/08 08:08:39;;;;;;;167.90;68.22;;;;;;;22.15;37.65;102261.31;5015468;28;20052;-71
2023/05/08 08:11:05;;;;;;;149.57;63.75;;;;;;;22.24;36.79;102259.16;5013266;28;20038;-71
2023/05/08 08:13:34;;;;;;;144.45;63.80;;;;;;;22.29;36.89;102248.31;5031180;28;20036;-72
2023/05/08 08:16:03;;;;;;;144.38;63.38;;;;;;;22.32;37.02;102248.19;5033535;28;20087;-72
2023/05/08 08:18:29;;;;;;;148.80;64.93;;;;;;;22.38;37.06;102245.28;4998715;28;20044;-72
2023/05/08 08:20:54;;;;;;;140.05;64.82;;;;;;;22.39;36.89;102246.19;5036520;28;20040;-72
2023/05/08 08:23:19;;;;;;;146.02;64.45;;;;;;;22.34;37.22;102246.34;5030732;28;20017;-71
2023/05/08 08:25:45;;;;;;;147.13;64.78;;;;;;;22.23;36.91;102253.88;5015587;28;20478;-72
2023/05/08 08:28:10;;;;;;;163.43;65.78;;;;;;;22.03;37.60;102252.91;5013814;28;20028;-71
2023/05/08 08:30:35;;;;;;;143.68;65.07;;;;;;;21.88;37.83;102242.88;5031728;28;20545;-72
2023/05/08 08:33:01;;;;;;;144.85;64.57;;;;;;;21.74;38.21;102246.91;5026063;28;20487;-73
2023/05/08 08:35:29;;;;;;;143.90;63.33;;;;;;;21.60;38.36;102250.13;5007566;28;20360;-73
2023/05/08 08:37:55;;;;;;;145.93;65.10;;;;;;;21.64;38.42;102239.34;5030923;28;20030;-72
2023/05/08 08:40:21;;;;;;;156.77;65.53;;;;;;;21.71;38.26;102243.53;4998265;28;20025;-71
2023/05/08 08:42:47;;;;;;;166.00;66.63;;;;;;;21.82;38.25;102232.47;5008602;28;20096;-70
2023/05/08 08:45:15;;;;;;;165.40;66.05;;;;;;;21.91;37.80;102238.28;5011196;28;20149;-71
2023/05/08 08:47:43;;;;;;;145.23;65.28;;;;;;;21.98;38.02;102238.91;5005642;28;20021;-72
2023/05/08 08:50:09;;;;;;;164.15;66.90;;;;;;;21.98;37.44;102238.91;5015073;28;20022;-73
2023/05/08 08:52:47;;;;;;;141.15;63.30;;;;;;;21.89;37.76;102244.59;5013710;28;20095;-71
2023/05/08 08:55:15;;;;;;;158.85;65.45;;;;;;;21.77;37.93;102236.19;4993284;28;20061;-70
2023/05/08 08:58:04;;;;;;;134.90;61.50;;;;;;;21.76;38.08;102239.78;4995099;28;20571;-72
2023/05/08 09:00:33;;;;;;;145.80;64.68;;;;;;;21.71;38.35;102238.22;4982783;28;20034;-71
2023/05/08 09:02:59;;;;;;;146.07;65.00;;;;;;;21.60;38.48;102246.59;5012118;28;20026;-72
2023/05/08 09:05:25;;;;;;;146.25;65.55;;;;;;;21.49;38.52;102254.94;5013499;28;20029;-72
2023/05/08 09:07:53;;;;;;;138.57;63.13;;;;;;;21.35;38.45;102250.16;4997595;28;20018;-72
2023/05/08 09:10:18;;;;;;;142.98;64.07;;;;;;;21.26;38.95;102250.50;5014051;28;20037;-72
2023/05/08 09:12:44;;;;;;;150.43;65.40;;;;;;;21.17;39.16;102256.13;4996396;28;20017;-72
2023/05/08 09:15:10;;;;;;;138.23;63.70;;;;;;;21.06;39.31;102260.03;4994421;28;20069;-73
2023/05/08 09:17:35;;;;;;;144.98;63.33;;;;;;;21.00;39.54;102249.63;4994171;28;20026;-71
2023/05/08 09:20:01;;;;;;;142.60;63.35;;;;;;;20.96;39.47;102255.13;4994157;28;20022;-72
2023/05/08 09:22:26;;;;;;;146.45;64.80;;;;;;;20.96;39.44;102250.66;5013944;28;20021;-72
2023/05/08 09:24:58;;;;;;;143.35;63.65;;;;;;;20.98;39.55;102253.28;4993950;28;20033;-71
2023/05/08 09:27:25;;;;;;;147.35;64.18;;;;;;;20.96;39.63;102257.78;4977936;28;20042;-72
2023/05/08 09:30:03;;;;;;;141.13;63.60;;;;;;;20.91;39.59;102249.97;4993606;28;20488;-72
2023/05/08 09:32:30;;;;;;;147.13;65.10;;;;;;;20.86;39.90;102254.56;5011602;28;20033;-72
2023/05/08 09:34:55;;;;;;;137.75;62.88;;;;;;;20.84;40.13;102245.78;4993778;28;20037;-72
2023/05/08 09:37:21;;;;;;;146.32;64.57;;;;;;;20.92;39.58;102249.03;4977526;28;20079;-72
2023/05/08 09:39:46;;;;;;;139.70;63.22;;;;;;;21.01;39.65;102235.44;4994566;28;20192;-72
2023/05/08 09:42:12;;;;;;;142.75;63.70;;;;;;;21.14;38.99;102232.34;4998102;28;20022;-74
2023/05/08 09:44:48;;;;;;;138.32;62.97;;;;;;;21.19;38.98;102233.06;5014014;28;20434;-72
2023/05/08 09:47:23;;;;;;;143.25;63.28;;;;;;;21.23;38.94;102224.91;4997644;28;20030;-73
2023/05/08 09:49:56;;;;;;;142.70;63.97;;;;;;;21.22;38.81;102227.63;4997722;28;20383;-72
2023/05/08 09:52:23;;;;;;;136.55;61.72;;;;;;;21.16;39.02;102227.81;5014167;28;20233;-72
2023/05/08 09:54:56;;;;;;;140.30;63.58;;;;;;;21.09;39.18;102222.75;5013718;28;20025;-72
2023/05/08 09:57:21;;;;;;;142.32;62.60;;;;;;;21.01;39.12;102219.50;5014256;28;20507;-72
2023/05/08 09:59:46;;;;;;;136.23;62.97;;;;;;;20.92;39.54;102227.81;4997641;28;20105;-72
2023/05/08 10:02:15;;;;;;;141.77;62.47;;;;;;;20.83;39.74;102231.63;4997467;28;20538;-72
2023/05/08 10:04:40;;;;;;;146.75;65.18;;;;;;;20.77;39.74;102230.06;4997122;28;20123;-72
2023/05/08 10:07:05;;;;;;;140.35;62.78;;;;;;;20.77;39.57;102227.41;4980912;28;20091;-72
2023/05/08 10:09:31;;;;;;;150.77;64.22;;;;;;;20.80;39.85;102226.44;4997321;28;20025;-72
2023/05/08 10:11:56;;;;;;;139.65;61.75;;;;;;;20.82;39.74;102231.69;5015307;28;20026;-72
2023/05/08 10:14:22;;;;;;;146.90;64.40;;;;;;;20.85;39.42;102223.63;5020164;28;20025;-72
2023/05/08 10:16:50;;;;;;;140.75;63.30;;;;;;;20.85;39.46;102223.63;5025032;28;20394;-72
2023/05/08 10:19:17;;;;;;;140.70;63.25;;;;;;;20.86;39.52;102218.28;4997184;28;20028;-72
2023/05/08 10:21:48;;;;;;;149.70;65.32;;;;;;;20.87;39.23;102221.78;4980978;28;20021;-72
2023/05/08 10:24:31;;;;;;;171.23;66.88;;;;;;;20.87;39.28;102216.47;4996987;28;20499;-72
2023/05/08 10:27:02;;;;;;;139.88;62.28;;;;;;;20.86;39.58;102220.03;4996995;28;20537;-72
2023/05/08 10:29:41;;;;;;;147.00;64.88;;;;;;;20.85;39.48;102220.97;4997292;28;20045;-72
2023/05/08 10:32:09;;;;;;;137.38;62.65;;;;;;;20.84;39.41;102213.94;4997560;28;20018;-72
2023/05/08 10:34:39;;;;;;;139.65;61.90;;;;;;;20.80;39.72;102226.44;5014689;28;20029;-72
2023/05/08 10:37:06;;;;;;;141.82;62.38;;;;;;;20.79;39.69;102219.38;4998057;28;20493;-72
2023/05/08 10:39:32;;;;;;;145.50;64.60;;;;;;;20.75;39.53;102213.34;4998251;28;20033;-72
2023/05/08 10:41:58;;;;;;;140.88;62.00;;;;;;;20.71;39.67;102205.50;4997512;28;20022;-72
2023/05/08 10:44:23;;;;;;;146.38;63.63;;;;;;;20.66;39.69;102205.66;4981809;28;20080;-73
2023/05/08 10:46:56;;;;;;;142.52;63.30;;;;;;;20.63;39.99;102197.81;4982396;28;20546;-73
2023/05/08 10:49:30;;;;;;;142.60;62.88;;;;;;;20.59;39.66;102197.03;4997793;28;20395;-72
2023/05/08 10:52:15;;;;;;;141.38;61.95;;;;;;;20.54;40.30;102193.66;4996167;28;20450;-72
2023/05/08 10:54:52;;;;;;;144.52;63.53;;;;;;;20.49;39.88;102194.75;4996404;28;20040;-72
2023/05/08 10:57:18;;;;;;;143.60;63.08;;;;;;;20.43;39.82;102179.91;5014127;28;20022;-72
2023/05/08 10:59:45;;;;;;;142.38;62.75;;;;;;;20.37;39.97;102183.63;5014146;28;20034;-71
2023/05/08 11:02:11;;;;;;;138.13;62.80;;;;;;;20.33;40.43;102181.13;4996628;28;20022;-72
2023/05/08 11:04:37;;;;;;;140.77;62.80;;;;;;;20.27;40.38;102179.53;4996124;28;20029;-72
2023/05/08 11:07:03;;;;;;;140.63;62.28;;;;;;;20.23;40.08;102189.41;4996411;28;20368;-72